createdAt,value
2022-08-03T00:01:22.012Z,22.08
2022-08-03T00:03:48.596Z,22.09
2022-08-03T00:06:15.212Z,22.08
2022-08-03T00:08:41.858Z,22.10
2022-08-03T00:11:08.457Z,22.09
2022-08-03T00:13:35.263Z,22.11
2022-08-03T00:16:02.269Z,22.09
2022-08-03T00:18:30.293Z,22.05
2022-08-03T00:20:58.746Z,22.04
2022-08-03T00:23:31.754Z,22.05
2022-08-03T00:26:15.553Z,22.06
2022-08-03T00:28:44.098Z,22.06
2022-08-03T00:31:13.438Z,22.07
2022-08-03T00:33:58.937Z,22.07
2022-08-03T00:36:28.650Z,22.08
2022-08-03T00:38:56.475Z,22.09
2022-08-03T00:41:23.679Z,22.05
2022-08-03T00:43:50.486Z,22.04
2022-08-03T00:46:21.283Z,22.05
2022-08-03T00:48:52.623Z,22.05
2022-08-03T00:51:21.436Z,22.04
2022-08-03T00:53:48.397Z,21.99
2022-08-03T00:56:16.271Z,22.00
2022-08-03T00:58:45.029Z,21.96
2022-08-03T01:01:12.786Z,21.98
2022-08-03T01:03:39.922Z,21.98
2022-08-03T01:09:22.109Z,21.93
2022-08-03T01:27:47.010Z,21.96
2022-08-03T01:30:13.760Z,21.97
2022-08-03T01:33:04.052Z,21.94
2022-08-03T01:35:54.439Z,21.82
2022-08-03T01:38:30.861Z,21.88
2022-08-03T01:40:58.581Z,21.86
2022-08-03T01:44:27.547Z,21.85
2022-08-03T01:46:17.014Z,21.81
2022-08-03T01:48:46.208Z,21.78
2022-08-03T01:51:15.622Z,21.79
2022-08-03T01:53:42.974Z,21.76
2022-08-03T01:56:10.513Z,21.74
2022-08-03T01:58:38.724Z,21.72
2022-08-03T02:01:06.838Z,21.67
2022-08-03T02:03:38.439Z,21.70
2022-08-03T02:07:00.730Z,21.66
2022-08-03T02:09:15.018Z,21.65
2022-08-03T02:11:42.966Z,21.65
2022-08-03T02:14:10.666Z,21.63
2022-08-03T02:16:37.483Z,21.61
2022-08-03T02:19:07.450Z,21.62
2022-08-03T02:21:57.356Z,21.61
2022-08-03T02:24:24.554Z,21.58
2022-08-03T02:26:55.569Z,21.57
2022-08-03T02:29:39.514Z,21.56
2022-08-03T02:32:12.638Z,21.55
2022-08-03T02:34:40.934Z,21.55
2022-08-03T02:37:10.446Z,21.55
2022-08-03T02:39:37.826Z,21.35
2022-08-03T02:42:08.754Z,21.50
2022-08-03T02:44:37.150Z,21.50
2022-08-03T02:47:07.406Z,21.47
2022-08-03T02:49:49.991Z,21.44
2022-08-03T02:52:20.110Z,21.39
2022-08-03T02:54:49.126Z,21.36
2022-08-03T02:57:18.653Z,21.32
2022-08-03T02:59:45.942Z,21.08
2022-08-03T03:02:16.329Z,21.16
2022-08-03T03:05:51.851Z,21.14
2022-08-03T03:07:39.119Z,21.12
2022-08-03T03:10:20.966Z,21.08
2022-08-03T03:12:50.319Z,21.06
2022-08-03T03:15:17.181Z,21.02
2022-08-03T03:17:44.812Z,20.99
2022-08-03T03:20:12.265Z,20.94
2022-08-03T03:22:40.213Z,20.92
2022-08-03T03:25:12.042Z,20.88
2022-08-03T03:27:39.902Z,20.85
2022-08-03T03:32:33.772Z,20.78
2022-08-03T03:35:01.253Z,20.77
2022-08-03T03:37:27.881Z,20.74
2022-08-03T03:39:55.423Z,20.72
2022-08-03T03:42:22.510Z,20.70
2022-08-03T03:44:49.342Z,20.67
2022-08-03T03:47:16.007Z,20.64
2022-08-03T03:49:43.977Z,20.64
2022-08-03T03:52:11.150Z,20.62
2022-08-03T03:54:42.396Z,20.60
2022-08-03T03:57:12.985Z,20.58
2022-08-03T03:59:42.294Z,20.57
2022-08-03T04:02:10.141Z,20.55
2022-08-03T04:04:57.681Z,20.52
2022-08-03T04:07:46.473Z,20.52
2022-08-03T04:10:37.083Z,20.53
2022-08-03T04:13:10.042Z,20.53
2022-08-03T04:15:39.790Z,20.57
2022-08-03T04:18:09.813Z,20.59
2022-08-03T04:20:38.954Z,20.62
2022-08-03T04:23:13.496Z,20.64
2022-08-03T04:25:44.006Z,20.66
2022-08-03T04:28:30.740Z,20.68
2022-08-03T04:30:59.120Z,20.65
2022-08-03T04:33:29.709Z,20.65
2022-08-03T04:36:02.509Z,20.64
2022-08-03T04:38:33.040Z,20.65
2022-08-03T04:41:01.118Z,20.67
2022-08-03T04:43:29.474Z,20.69
2022-08-03T04:45:56.942Z,20.68
2022-08-03T04:48:24.092Z,20.69
2022-08-03T04:50:50.995Z,20.70
2022-08-03T04:53:18.235Z,20.73
2022-08-03T04:55:46.651Z,20.74
2022-08-03T04:58:13.277Z,20.78
2022-08-03T05:00:39.887Z,20.80
2022-08-03T05:03:20.263Z,20.84
2022-08-03T05:05:52.351Z,20.80
2022-08-03T05:08:27.667Z,20.85
2022-08-03T05:10:54.809Z,20.87
2022-08-03T05:13:21.414Z,20.87
2022-08-03T05:15:48.038Z,20.88
2022-08-03T05:18:14.774Z,20.88
2022-08-03T05:20:41.586Z,20.89
2022-08-03T05:23:08.230Z,20.91
2022-08-03T05:25:34.853Z,20.92
2022-08-03T05:28:01.482Z,20.92
2022-08-03T05:30:33.562Z,20.93
2022-08-03T05:33:02.623Z,20.93
2022-08-03T05:35:56.830Z,20.95
2022-08-03T05:38:24.133Z,20.93
2022-08-03T05:40:56.720Z,20.96
2022-08-03T05:43:24.760Z,20.96
2022-08-03T05:46:12.000Z,20.97
2022-08-03T05:48:38.091Z,20.98
2022-08-03T05:51:06.703Z,21.02
2022-08-03T05:53:34.326Z,21.05
2022-08-03T05:56:03.431Z,21.09
2022-08-03T05:58:44.814Z,21.14
2022-08-03T06:01:11.579Z,21.18
2022-08-03T06:03:38.198Z,21.27
2022-08-03T06:06:04.929Z,21.41
2022-08-03T06:08:31.580Z,21.51
2022-08-03T06:10:58.198Z,21.60
2022-08-03T06:13:24.773Z,21.67
2022-08-03T06:15:51.367Z,21.71
2022-08-03T06:18:17.980Z,21.75
2022-08-03T06:20:44.681Z,21.76
2022-08-03T06:23:17.795Z,21.83
2022-08-03T06:25:45.399Z,21.87
2022-08-03T06:28:42.393Z,21.89
2022-08-03T06:31:01.344Z,21.87
2022-08-03T06:34:30.429Z,21.95
2022-08-03T06:36:15.179Z,22.05
2022-08-03T06:38:41.893Z,22.20
2022-08-03T06:41:08.560Z,22.43
2022-08-03T06:43:37.802Z,22.72
2022-08-03T06:46:05.668Z,22.98
2022-08-03T06:48:32.758Z,23.19
2022-08-03T06:50:59.387Z,23.30
2022-08-03T06:53:26.339Z,23.45
2022-08-03T06:55:55.043Z,23.79
2022-08-03T06:58:22.453Z,24.03
2022-08-03T07:00:49.272Z,24.22
2022-08-03T07:03:16.608Z,24.33
2022-08-03T07:05:43.978Z,24.46
2022-08-03T07:08:10.639Z,24.65
2022-08-03T07:10:37.342Z,24.75
2022-08-03T07:13:05.395Z,24.89
2022-08-03T07:15:55.049Z,24.98
2022-08-03T07:18:24.598Z,25.02
2022-08-03T07:20:57.519Z,25.07
2022-08-03T07:23:24.198Z,25.19
2022-08-03T07:25:51.047Z,25.27
2022-08-03T07:28:18.028Z,25.36
2022-08-03T07:30:44.662Z,25.56
2022-08-03T07:33:11.496Z,25.69
2022-08-03T07:35:38.360Z,25.71
2022-08-03T07:38:05.045Z,25.70
2022-08-03T07:40:32.686Z,25.66
2022-08-03T07:43:00.224Z,25.65
2022-08-03T07:45:27.032Z,25.63
2022-08-03T07:47:54.348Z,25.60
2022-08-03T07:50:22.306Z,25.64
2022-08-03T07:52:50.048Z,25.63
2022-08-03T07:55:18.505Z,25.55
2022-08-03T07:57:45.194Z,25.46
2022-08-03T08:00:17.265Z,25.40
2022-08-03T08:02:44.611Z,25.36
2022-08-03T08:05:11.437Z,25.30
2022-08-03T08:07:38.922Z,25.27
2022-08-03T08:10:07.904Z,25.34
2022-08-03T08:12:34.554Z,25.39
2022-08-03T08:15:01.520Z,25.41
2022-08-03T08:17:28.247Z,25.41
2022-08-03T08:19:54.898Z,25.42
2022-08-03T08:22:29.931Z,25.35
2022-08-03T08:24:58.169Z,25.28
2022-08-03T08:27:24.798Z,25.20
2022-08-03T08:29:54.171Z,25.08
2022-08-03T08:32:23.432Z,25.03
2022-08-03T08:34:50.276Z,25.03
2022-08-03T08:37:16.933Z,25.10
2022-08-03T08:39:43.592Z,25.22
2022-08-03T08:42:10.439Z,25.35
2022-08-03T08:44:37.130Z,25.40
2022-08-03T08:47:04.650Z,25.40
2022-08-03T08:49:33.143Z,25.39
2022-08-03T08:52:02.060Z,25.44
2022-08-03T08:54:32.540Z,25.53
2022-08-03T08:57:02.692Z,25.60
2022-08-03T08:59:48.905Z,25.71
2022-08-03T09:02:16.724Z,25.79
2022-08-03T09:04:45.639Z,25.84
2022-08-03T09:07:20.097Z,25.89
2022-08-03T09:10:08.378Z,25.93
2022-08-03T09:12:42.195Z,25.98
2022-08-03T09:18:01.028Z,26.15
2022-08-03T09:20:31.438Z,26.26
2022-08-03T09:25:36.789Z,26.49
2022-08-03T09:28:53.917Z,26.64
2022-08-03T09:31:07.837Z,26.77
2022-08-03T09:33:46.860Z,26.78
2022-08-03T09:36:54.156Z,26.71
2022-08-03T09:42:17.562Z,26.56
2022-08-03T09:44:48.535Z,26.40
2022-08-03T09:47:28.408Z,26.35
2022-08-03T09:50:02.233Z,26.49
2022-08-03T09:52:49.248Z,26.75
2022-08-03T09:56:31.108Z,26.96
2022-08-03T09:58:07.008Z,27.33
2022-08-03T10:00:54.815Z,27.50
2022-08-03T10:03:22.737Z,27.81
2022-08-03T10:05:49.404Z,28.21
2022-08-03T10:08:18.333Z,28.56
2022-08-03T10:10:47.321Z,28.70
2022-08-03T10:13:15.230Z,28.67
2022-08-03T10:16:21.817Z,28.62
2022-08-03T10:18:28.498Z,28.63
2022-08-03T10:21:03.259Z,28.57
2022-08-03T10:23:34.754Z,28.65
2022-08-03T10:26:04.013Z,28.84
2022-08-03T10:28:38.404Z,29.01
2022-08-03T10:31:10.264Z,29.03
2022-08-03T10:33:51.695Z,29.11
2022-08-03T10:36:23.849Z,29.22
2022-08-03T10:38:53.291Z,29.30
2022-08-03T10:41:21.900Z,29.35
2022-08-03T10:51:54.526Z,29.15
2022-08-03T10:57:56.250Z,28.97
2022-08-03T16:01:06.350Z,30.59
2022-08-03T16:03:34.637Z,30.53
2022-08-03T16:06:03.377Z,30.44
2022-08-03T16:08:30.329Z,30.40
2022-08-03T16:10:57.502Z,30.37
2022-08-03T16:14:14.118Z,30.40
2022-08-03T16:16:13.954Z,30.41
2022-08-03T16:18:40.563Z,30.40
2022-08-03T16:21:07.146Z,30.40
2022-08-03T16:23:39.687Z,30.33
2022-08-03T16:26:10.138Z,30.31
2022-08-03T16:28:38.238Z,30.30
2022-08-03T16:31:05.825Z,30.29
2022-08-03T16:33:33.115Z,30.12
2022-08-03T16:35:59.761Z,30.00
2022-08-03T16:38:26.383Z,29.85
2022-08-03T16:40:53.026Z,29.74
2022-08-03T16:43:22.172Z,29.74
2022-08-03T16:45:49.657Z,29.79
2022-08-03T16:48:16.496Z,29.82
2022-08-03T16:50:43.243Z,29.84
2022-08-03T16:53:15.511Z,29.84
2022-08-03T16:55:53.817Z,29.85
2022-08-03T16:58:34.868Z,29.79
2022-08-03T17:01:22.445Z,29.78
2022-08-03T17:04:03.674Z,29.83
2022-08-03T17:06:35.956Z,29.90
2022-08-03T17:09:09.899Z,29.92
2022-08-03T17:11:46.655Z,29.85
2022-08-03T17:14:14.760Z,29.71
2022-08-03T17:16:52.175Z,29.57
2022-08-03T17:19:22.134Z,29.41
2022-08-03T17:24:40.809Z,29.18
2022-08-03T17:28:41.779Z,29.11
2022-08-03T17:30:07.958Z,29.03
2022-08-03T17:32:42.278Z,28.95
2022-08-03T17:35:10.483Z,28.86
2022-08-03T17:37:58.555Z,28.74
2022-08-03T17:40:23.810Z,28.62
2022-08-03T17:42:50.987Z,28.57
2022-08-03T17:45:17.993Z,28.52
2022-08-03T17:47:45.611Z,28.44
2022-08-03T17:50:33.467Z,28.39
2022-08-03T17:53:07.762Z,28.33
2022-08-03T17:55:57.481Z,28.30
2022-08-03T17:58:41.963Z,28.14
2022-08-03T18:01:59.186Z,28.09
2022-08-03T18:04:30.131Z,27.97
2022-08-03T18:06:59.545Z,27.94
2022-08-03T18:10:04.620Z,27.90
2022-08-03T18:12:27.023Z,27.80
2022-08-03T18:15:01.128Z,27.71
2022-08-03T18:17:55.108Z,27.61
2022-08-03T18:20:32.327Z,27.51
2022-08-03T18:23:04.724Z,27.41
2022-08-03T18:25:44.928Z,27.28
2022-08-03T18:28:18.726Z,27.19
2022-08-03T18:30:53.628Z,27.10
2022-08-03T18:34:20.330Z,27.05
2022-08-03T18:36:17.560Z,26.95
2022-08-03T18:38:47.494Z,26.88
2022-08-03T18:41:22.101Z,26.81
2022-08-03T18:44:06.964Z,26.74
2022-08-03T18:51:55.517Z,26.58
2022-08-03T18:54:45.940Z,26.49
2022-08-03T18:57:30.252Z,26.41
2022-08-03T19:05:24.784Z,26.19
2022-08-03T19:08:18.029Z,26.08
2022-08-03T19:11:00.530Z,26.01
2022-08-03T19:13:36.020Z,25.90
2022-08-03T19:16:08.476Z,25.80
2022-08-03T19:18:37.674Z,25.71
2022-08-03T19:21:12.678Z,25.61
2022-08-03T19:23:45.197Z,25.53
2022-08-03T19:26:29.962Z,25.45
2022-08-03T19:28:59.107Z,25.32
2022-08-03T19:31:31.228Z,25.24
2022-08-03T19:34:03.175Z,25.15
2022-08-03T19:36:31.405Z,25.05
2022-08-03T19:38:58.558Z,24.94
2022-08-03T19:44:29.238Z,24.71
2022-08-03T19:47:22.341Z,24.55
2022-08-03T19:50:06.092Z,24.53
2022-08-03T19:52:39.564Z,24.43
2022-08-03T19:55:12.362Z,24.37
2022-08-03T19:57:42.276Z,24.31
2022-08-03T20:00:12.554Z,24.25
2022-08-03T20:02:41.221Z,24.19
2022-08-03T20:05:11.997Z,24.12
2022-08-03T20:07:47.509Z,24.05
2022-08-03T20:10:16.688Z,23.98
2022-08-03T20:12:44.865Z,23.91
2022-08-03T20:15:12.063Z,23.84
2022-08-03T20:17:56.972Z,23.78
2022-08-03T20:23:10.368Z,23.64
2022-08-03T20:25:48.818Z,23.53
2022-08-03T20:28:29.544Z,23.47
2022-08-03T20:30:56.279Z,23.40
2022-08-03T20:33:34.577Z,23.35
2022-08-03T20:36:10.335Z,23.28
2022-08-03T20:38:46.858Z,23.22
2022-08-03T20:41:13.696Z,22.90
2022-08-03T20:43:41.333Z,23.09
2022-08-03T20:46:31.987Z,23.04
2022-08-03T20:48:57.232Z,23.00
2022-08-03T20:51:49.744Z,22.94
2022-08-03T20:54:28.736Z,22.88
2022-08-03T20:57:00.794Z,22.78
2022-08-03T21:02:29.520Z,22.65
2022-08-03T21:05:02.909Z,22.60
2022-08-03T21:10:29.851Z,22.51
2022-08-03T21:13:02.695Z,24.84
2022-08-03T21:13:07.828Z,22.72
2022-08-03T21:13:13.848Z,22.56
2022-08-03T21:16:06.633Z,22.41
2022-08-03T21:18:23.629Z,22.34
2022-08-03T21:20:51.262Z,22.31
2022-08-03T21:23:39.808Z,22.27
2022-08-03T21:26:07.902Z,22.23
2022-08-03T21:28:35.175Z,22.18
2022-08-03T21:31:01.962Z,22.11
2022-08-03T21:33:29.135Z,22.08
2022-08-03T21:35:56.173Z,22.02
2022-08-03T21:38:29.973Z,21.96
2022-08-03T21:40:57.382Z,21.92
2022-08-03T21:43:24.071Z,21.86
2022-08-03T21:45:54.966Z,21.81
2022-08-03T21:48:25.985Z,21.77
2022-08-03T21:50:53.448Z,21.70
2022-08-03T21:53:20.599Z,21.66
2022-08-03T21:55:54.434Z,21.60
2022-08-03T21:58:29.686Z,21.55
2022-08-03T22:00:58.175Z,21.50
2022-08-03T22:03:26.389Z,21.44
2022-08-03T22:05:54.710Z,21.39
2022-08-03T22:08:34.656Z,21.35
2022-08-03T22:11:04.371Z,21.30
2022-08-03T22:13:43.947Z,21.25
2022-08-03T22:16:11.823Z,21.21
2022-08-03T22:18:40.585Z,21.17
2022-08-03T22:21:11.643Z,21.10
2022-08-03T22:23:43.113Z,21.00
2022-08-03T22:26:14.640Z,20.92
2022-08-03T22:28:42.113Z,20.86
2022-08-03T22:31:56.969Z,20.80
2022-08-03T22:33:55.525Z,20.74
2022-08-03T22:36:23.948Z,20.72
2022-08-03T22:38:53.052Z,20.67
2022-08-03T22:41:20.246Z,20.62
2022-08-03T22:43:47.095Z,20.56
2022-08-03T22:46:18.675Z,20.51
2022-08-03T22:48:47.340Z,20.48
2022-08-03T22:51:15.555Z,20.43
2022-08-03T22:53:44.723Z,20.38
2022-08-03T22:56:11.813Z,20.32
2022-08-03T22:58:38.493Z,20.28
2022-08-03T23:01:08.429Z,20.26
2022-08-03T23:03:59.902Z,20.19
2022-08-03T23:06:27.338Z,20.12
2022-08-03T23:08:54.368Z,20.08
2022-08-03T23:11:23.949Z,20.06
2022-08-03T23:13:54.195Z,20.01
2022-08-03T23:16:29.202Z,19.96
2022-08-03T23:18:58.671Z,19.92
2022-08-03T23:21:53.908Z,19.87
2022-08-03T23:24:24.576Z,19.80
2022-08-03T23:26:57.194Z,19.75
2022-08-03T23:29:23.887Z,19.71
2022-08-03T23:31:52.993Z,19.67
2022-08-03T23:34:39.912Z,19.63
2022-08-03T23:37:06.720Z,19.56
2022-08-03T23:39:35.289Z,19.53
2022-08-03T23:42:03.097Z,19.49
2022-08-03T23:44:31.741Z,19.44
2022-08-03T23:46:58.465Z,19.40
2022-08-03T23:49:25.071Z,19.37
2022-08-03T23:52:17.200Z,19.32
